Terminal Aerodrome Forecast
Issued by NWS

Home | Current Version | Previous Version | Graphics & Text | Print | Product List | Glossary On
Versions: 1 2 3 4 5 6 7 8 9 10 11 12 13 14 15 16 17 18
000
FTUS42 KMHX 150528
TAFPGV
TAF
KPGV 150528Z 1506/1606 01010KT 6SM -RA BKN008
     FM150800 02010KT P6SM VCSH OVC007
     FM151200 03010G15KT P6SM SCT007 OVC015
     FM151500 05010G15KT P6SM SCT015 BKN035
     FM152100 05010KT P6SM VCSH SCT015 BKN035
      AMD LTD TO CLD VIS AND WIND=

USA.gov is the U.S. government's official web portal to all federal, state and local government web resources and services.